sensor_id;sensor_type;location;lat;lon;timestamp;pressure;altitude;pressure_sealevel;temperature;humidity
36798;BME280;22748;8.426;99.512;2023-02-04T11:26:12;100464.06;;;29.23;61.73
36798;BME280;22748;8.426;99.512;2023-02-04T11:28:49;100463.75;;;29.45;61.49
36798;BME280;22748;8.426;99.512;2023-02-04T11:35:25;100481.06;;;30.12;59.85
36798;BME280;22748;8.426;99.512;2023-02-04T11:37:56;100480.44;;;30.35;59.20
36798;BME280;22748;8.426;99.512;2023-02-04T11:40:30;100488.56;;;30.54;58.81
36798;BME280;22748;8.426;99.512;2023-02-04T11:43:11;100486.78;;;30.66;58.22
36798;BME280;22748;8.426;99.512;2023-02-04T11:45:42;100490.13;;;30.80;58.52
36798;BME280;22748;8.426;99.512;2023-02-04T11:48:20;100494.19;;;30.89;58.22
36798;BME280;22748;8.426;99.512;2023-02-04T11:50:55;100506.09;;;31.00;57.95
36798;BME280;22748;8.426;99.512;2023-02-04T11:53:30;100510.59;;;31.06;57.58
36798;BME280;22748;8.426;99.512;2023-02-04T11:55:59;100507.19;;;31.11;57.47
36798;BME280;22748;8.426;99.512;2023-02-04T11:58:32;100510.03;;;31.16;57.44
36798;BME280;22748;8.426;99.512;2023-02-04T12:01:02;100515.00;;;31.19;57.49
36798;BME280;22748;8.426;99.512;2023-02-04T12:03:34;100524.50;;;31.22;56.92
36798;BME280;22748;8.426;99.512;2023-02-04T12:06:21;100526.97;;;31.23;56.86
36798;BME280;22748;8.426;99.512;2023-02-04T12:08:52;100527.31;;;31.27;57.01
36798;BME280;22748;8.426;99.512;2023-02-04T12:11:32;100529.81;;;31.28;57.01
36798;BME280;22748;8.426;99.512;2023-02-04T12:14:09;100543.09;;;31.30;57.20
36798;BME280;22748;8.426;99.512;2023-02-04T12:16:45;100543.09;;;31.30;56.77
36798;BME280;22748;8.426;99.512;2023-02-04T12:19:17;100543.91;;;31.30;56.97
36798;BME280;22748;8.426;99.512;2023-02-04T12:21:47;100547.66;;;31.29;56.65
36798;BME280;22748;8.426;99.512;2023-02-04T12:24:16;100547.66;;;31.29;56.65
36798;BME280;22748;8.426;99.512;2023-02-04T12:26:46;100555.97;;;31.28;56.47
36798;BME280;22748;8.426;99.512;2023-02-04T12:29:19;100552.47;;;31.27;56.54
36798;BME280;22748;8.426;99.512;2023-02-04T12:31:48;100558.88;;;31.26;56.59
36798;BME280;22748;8.426;99.512;2023-02-04T12:34:18;100563.97;;;31.16;56.30
36798;BME280;22748;8.426;99.512;2023-02-04T12:36:48;100565.66;;;31.17;56.60
36798;BME280;22748;8.426;99.512;2023-02-04T12:39:17;100575.38;;;31.18;56.72
36798;BME280;22748;8.426;99.512;2023-02-04T12:41:49;100575.38;;;31.18;56.60
36798;BME280;22748;8.426;99.512;2023-02-04T12:44:22;100577.25;;;31.17;56.99
36798;BME280;22748;8.426;99.512;2023-02-04T12:46:54;100585.56;;;31.16;57.18
36798;BME280;22748;8.426;99.512;2023-02-04T12:49:22;100589.34;;;31.15;57.23
36798;BME280;22748;8.426;99.512;2023-02-04T12:51:53;100581.03;;;31.16;57.26
36798;BME280;22748;8.426;99.512;2023-02-04T12:54:28;100590.97;;;31.16;56.93
36798;BME280;22748;8.426;99.512;2023-02-04T12:56:57;100590.16;;;31.15;56.87
36798;BME280;22748;8.426;99.512;2023-02-04T12:59:31;100597.41;;;31.15;56.74
36798;BME280;22748;8.426;99.512;2023-02-04T13:02:01;100599.06;;;31.16;56.77
36798;BME280;22748;8.426;99.512;2023-02-04T13:04:31;100597.41;;;31.15;56.87
36798;BME280;22748;8.426;99.512;2023-02-04T13:07:01;100597.22;;;31.16;56.94
36798;BME280;22748;8.426;99.512;2023-02-04T13:09:33;100608.00;;;31.16;57.09
36798;BME280;22748;8.426;99.512;2023-02-04T13:12:04;80992.97;;;31.16;57.35
36798;BME280;22748;8.426;99.512;2023-02-04T13:14:43;100603.84;;;31.14;57.53
36798;BME280;22748;8.426;99.512;2023-02-04T13:17:13;100608.44;;;31.13;57.50
36798;BME280;22748;8.426;99.512;2023-02-04T13:19:43;100613.59;;;31.15;57.51
36798;BME280;22748;8.426;99.512;2023-02-04T13:22:14;100617.94;;;31.16;57.10
36798;BME280;22748;8.426;99.512;2023-02-04T13:24:48;100613.38;;;31.16;57.36
36798;BME280;22748;8.426;99.512;2023-02-04T13:27:22;100622.09;;;31.19;57.49
36798;BME280;22748;8.426;99.512;2023-02-04T13:33:24;100630.41;;;31.17;57.50
36798;BME280;22748;8.426;99.512;2023-02-04T13:35:58;100634.97;;;31.16;57.50
36798;BME280;22748;8.426;99.512;2023-02-04T13:38:31;100638.50;;;31.17;57.62
36798;BME280;22748;8.426;99.512;2023-02-04T13:41:03;100634.13;;;31.16;57.30
36798;BME280;22748;8.426;99.512;2023-02-04T13:43:34;100639.53;;;31.16;57.55
36798;BME280;22748;8.426;99.512;2023-02-04T13:46:09;100650.56;;;31.14;57.44
36798;BME280;22748;8.426;99.512;2023-02-04T13:48:40;100660.88;;;31.17;57.64
36798;BME280;22748;8.426;99.512;2023-02-04T13:51:09;100670.25;;;31.15;57.37
36798;BME280;22748;8.426;99.512;2023-02-04T13:53:39;100654.06;;;31.15;57.30
36798;BME280;22748;8.426;99.512;2023-02-04T13:56:20;100658.88;;;31.13;57.29
36798;BME280;22748;8.426;99.512;2023-02-04T13:58:52;100649.94;;;31.12;57.74
36798;BME280;22748;8.426;99.512;2023-02-04T14:01:24;100654.53;;;31.12;57.67
36798;BME280;22748;8.426;99.512;2023-02-04T14:03:58;100660.97;;;31.11;57.52
36798;BME280;22748;8.426;99.512;2023-02-04T14:06:30;100671.16;;;31.09;57.41
36798;BME280;22748;8.426;99.512;2023-02-04T14:09:07;100664.53;;;31.05;58.10
36798;BME280;22748;8.426;99.512;2023-02-04T14:11:42;100668.31;;;31.04;57.83
36798;BME280;22748;8.426;99.512;2023-02-04T14:14:14;100666.63;;;31.03;57.75
36798;BME280;22748;8.426;99.512;2023-02-04T14:16:45;100672.03;;;31.03;57.66
36798;BME280;22748;8.426;99.512;2023-02-04T14:19:26;100668.72;;;31.01;58.02
36798;BME280;22748;8.426;99.512;2023-02-04T14:22:01;100676.22;;;30.99;58.21
36798;BME280;22748;8.426;99.512;2023-02-04T14:24:35;100680.44;;;30.94;58.01
36798;BME280;22748;8.426;99.512;2023-02-04T14:27:10;100670.28;;;30.90;58.04
36798;BME280;22748;8.426;99.512;2023-02-04T14:29:45;100675.91;;;30.88;58.24
36798;BME280;22748;8.426;99.512;2023-02-04T14:32:15;100677.56;;;30.89;58.26
36798;BME280;22748;8.426;99.512;2023-02-04T14:34:50;100679.44;;;30.89;57.98
36798;BME280;22748;8.426;99.512;2023-02-04T14:37:19;100682.75;;;30.91;58.29
36798;BME280;22748;8.426;99.512;2023-02-04T14:40:02;100677.56;;;30.89;58.42
36798;BME280;22748;8.426;99.512;2023-02-04T14:42:57;100681.31;;;30.88;58.21
36798;BME280;22748;8.426;99.512;2023-02-04T14:45:28;100685.84;;;30.88;58.44
36798;BME280;22748;8.426;99.512;2023-02-04T14:48:01;100692.09;;;30.88;58.17
36798;BME280;22748;8.426;99.512;2023-02-04T14:50:34;100692.91;;;30.89;58.41
36798;BME280;22748;8.426;99.512;2023-02-04T14:53:07;100688.78;;;30.86;58.67
36798;BME280;22748;8.426;99.512;2023-02-04T14:55:36;100695.19;;;30.85;58.39
36798;BME280;22748;8.426;99.512;2023-02-04T14:58:07;100698.75;;;30.86;58.79
36798;BME280;22748;8.426;99.512;2023-02-04T15:00:36;100697.28;;;30.83;58.94
36798;BME280;22748;8.426;99.512;2023-02-04T15:03:07;100709.13;;;30.82;58.95
36798;BME280;22748;8.426;99.512;2023-02-04T15:05:44;100706.84;;;30.79;58.56
36798;BME280;22748;8.426;99.512;2023-02-04T15:08:15;100707.09;;;30.78;59.08
36798;BME280;22748;8.426;99.512;2023-02-04T15:10:46;100706.28;;;30.77;58.88
36798;BME280;22748;8.426;99.512;2023-02-04T15:13:16;100703.56;;;30.77;58.80
36798;BME280;22748;8.426;99.512;2023-02-04T15:15:50;100702.13;;;30.74;58.73
36798;BME280;22748;8.426;99.512;2023-02-04T15:18:28;100695.09;;;30.73;58.75
36798;BME280;22748;8.426;99.512;2023-02-04T15:21:00;100698.81;;;30.72;58.96
36798;BME280;22748;8.426;99.512;2023-02-04T15:23:30;100696.56;;;30.69;58.86
36798;BME280;22748;8.426;99.512;2023-02-04T15:26:25;100699.31;;;30.63;58.99
36798;BME280;22748;8.426;99.512;2023-02-04T15:28:55;100696.03;;;30.61;59.07
36798;BME280;22748;8.426;99.512;2023-02-04T15:31:29;100700.81;;;30.59;58.96
36798;BME280;22748;8.426;99.512;2023-02-04T15:34:01;100693.53;;;30.59;59.35
36798;BME280;22748;8.426;99.512;2023-02-04T15:36:42;100693.97;;;30.56;58.91
36798;BME280;22748;8.426;99.512;2023-02-04T15:39:13;100697.72;;;30.55;59.15
36798;BME280;22748;8.426;99.512;2023-02-04T15:41:45;100700.03;;;30.51;59.31
36798;BME280;22748;8.426;99.512;2023-02-04T15:44:17;100698.97;;;30.52;59.19
36798;BME280;22748;8.426;99.512;2023-02-04T15:46:47;100707.66;;;30.54;59.33
36798;BME280;22748;8.426;99.512;2023-02-04T15:49:22;100697.94;;;30.53;59.03
36798;BME280;22748;8.426;99.512;2023-02-04T15:51:54;100697.94;;;30.53;59.25
36798;BME280;22748;8.426;99.512;2023-02-04T15:54:28;100701.66;;;30.52;59.41
36798;BME280;22748;8.426;99.512;2023-02-04T15:57:05;100707.06;;;30.52;58.98
36798;BME280;22748;8.426;99.512;2023-02-04T15:59:37;100707.06;;;30.52;59.32
36798;BME280;22748;8.426;99.512;2023-02-04T16:02:12;100700.84;;;30.52;59.29
36798;BME280;22748;8.426;99.512;2023-02-04T16:04:42;100690.88;;;30.52;59.08
36798;BME280;22748;8.426;99.512;2023-02-04T16:07:18;100699.44;;;30.49;58.86
36798;BME280;22748;8.426;99.512;2023-02-04T16:09:49;100695.31;;;30.47;59.00
36798;BME280;22748;8.426;99.512;2023-02-04T16:12:25;100699.22;;;30.44;59.17
36798;BME280;22748;8.426;99.512;2023-02-04T16:14:56;100699.69;;;30.41;59.38
36798;BME280;22748;8.426;99.512;2023-02-04T16:17:28;100693.28;;;30.35;59.45
36798;BME280;22748;8.426;99.512;2023-02-04T16:19:59;100697.03;;;30.34;58.82
36798;BME280;22748;8.426;99.512;2023-02-04T16:22:32;100696.44;;;30.32;58.72
36798;BME280;22748;8.426;99.512;2023-02-04T16:25:07;100690.22;;;30.32;58.79
36798;BME280;22748;8.426;99.512;2023-02-04T16:27:37;100687.53;;;30.32;58.32
36798;BME280;22748;8.426;99.512;2023-02-04T16:30:08;100692.69;;;30.33;58.73
36798;BME280;22748;8.426;99.512;2023-02-04T16:32:37;100688.13;;;30.34;58.64
36798;BME280;22748;8.426;99.512;2023-02-04T16:35:07;100696.22;;;30.34;58.19
36798;BME280;22748;8.426;99.512;2023-02-04T16:37:40;100696.03;;;30.29;58.11
36798;BME280;22748;8.426;99.512;2023-02-04T16:40:11;100696.66;;;30.24;58.21
36798;BME280;22748;8.426;99.512;2023-02-04T16:42:40;100695.81;;;30.24;58.69
36798;BME280;22748;8.426;99.512;2023-02-04T16:45:12;100699.56;;;30.23;58.24
36798;BME280;22748;8.426;99.512;2023-02-04T16:47:40;100696.88;;;30.23;58.31
36798;BME280;22748;8.426;99.512;2023-02-04T16:50:16;100691.25;;;30.24;58.58
36798;BME280;22748;8.426;99.512;2023-02-04T16:52:49;100697.50;;;30.25;58.46
36798;BME280;22748;8.426;99.512;2023-02-04T16:55:22;100692.53;;;30.22;58.33
36798;BME280;22748;8.426;99.512;2023-02-04T16:57:57;100700.00;;;30.20;58.77
36798;BME280;22748;8.426;99.512;2023-02-04T17:00:30;100696.06;;;30.15;58.67
36798;BME280;22748;8.426;99.512;2023-02-04T17:03:00;100704.59;;;30.12;58.92
36798;BME280;22748;8.426;99.512;2023-02-04T17:05:32;100699.22;;;30.12;58.71
36798;BME280;22748;8.426;99.512;2023-02-04T17:08:09;100695.91;;;30.10;58.62
36798;BME280;22748;8.426;99.512;2023-02-04T17:10:46;100691.34;;;30.11;58.98
36798;BME280;22748;8.426;99.512;2023-02-04T17:13:29;100702.13;;;30.11;58.77
36798;BME280;22748;8.426;99.512;2023-02-04T17:16:01;100687.22;;;30.08;58.79
36798;BME280;22748;8.426;99.512;2023-02-04T17:18:33;100683.47;;;30.09;59.15
36798;BME280;22748;8.426;99.512;2023-02-04T17:21:04;100683.25;;;30.11;58.74
36798;BME280;22748;8.426;99.512;2023-02-04T17:23:39;100675.38;;;30.09;58.63
36798;BME280;22748;8.426;99.512;2023-02-04T17:26:11;100677.25;;;30.09;59.11
36798;BME280;22748;8.426;99.512;2023-02-04T17:28:41;100674.56;;;30.09;58.98
36798;BME280;22748;8.426;99.512;2023-02-04T17:31:16;100672.13;;;30.07;58.89
36798;BME280;22748;8.426;99.512;2023-02-04T17:33:47;100679.34;;;30.07;58.87
36798;BME280;22748;8.426;99.512;2023-02-04T17:36:18;100666.94;;;30.06;58.74
36798;BME280;22748;8.426;99.512;2023-02-04T17:38:52;100666.13;;;30.05;59.00
36798;BME280;22748;8.426;99.512;2023-02-04T17:41:22;100672.31;;;30.06;58.58
36798;BME280;22748;8.426;99.512;2023-02-04T17:43:51;100666.13;;;30.05;58.88
36798;BME280;22748;8.426;99.512;2023-02-04T17:46:23;100664.44;;;30.04;58.93
36798;BME280;22748;8.426;99.512;2023-02-04T17:48:52;100664.44;;;30.04;59.08
36798;BME280;22748;8.426;99.512;2023-02-04T17:51:25;100662.81;;;30.03;58.66
36798;BME280;22748;8.426;99.512;2023-02-04T17:53:58;100658.91;;;29.99;58.84
36798;BME280;22748;8.426;99.512;2023-02-04T17:56:28;100659.31;;;29.96;58.75
36798;BME280;22748;8.426;99.512;2023-02-04T17:59:04;100662.00;;;29.96;58.93
36798;BME280;22748;8.426;99.512;2023-02-04T18:01:37;100653.09;;;29.96;58.84
36798;BME280;22748;8.426;99.512;2023-02-04T18:04:11;100651.22;;;29.96;58.65
36798;BME280;22748;8.426;99.512;2023-02-04T18:06:42;100653.31;;;29.94;59.21
36798;BME280;22748;8.426;99.512;2023-02-04T18:09:15;100643.81;;;29.91;59.22
36798;BME280;22748;8.426;99.512;2023-02-04T18:11:45;100645.47;;;29.92;59.11
36798;BME280;22748;8.426;99.512;2023-02-04T18:14:18;100648.38;;;29.91;59.12
36798;BME280;22748;8.426;99.512;2023-02-04T18:16:49;100634.91;;;29.91;59.04
36798;BME280;22748;8.426;99.512;2023-02-04T18:19:21;100625.19;;;29.90;59.25
36798;BME280;22748;8.426;99.512;2023-02-04T18:21:56;100628.91;;;29.89;58.99
36798;BME280;22748;8.426;99.512;2023-02-04T18:28:14;100614.84;;;29.87;58.85
36798;BME280;22748;8.426;99.512;2023-02-04T18:31:24;100611.53;;;29.85;59.37
36798;BME280;22748;8.426;99.512;2023-02-04T18:34:25;100612.59;;;29.84;59.40
36798;BME280;22748;8.426;99.512;2023-02-04T18:37:29;100605.97;;;29.80;59.40
36798;BME280;22748;8.426;99.512;2023-02-04T18:40:24;100592.94;;;29.77;59.08
36798;BME280;22748;8.426;99.512;2023-02-04T18:43:04;100594.00;;;29.76;59.03
36798;BME280;22748;8.426;99.512;2023-02-04T18:45:40;100592.13;;;29.76;59.45
36798;BME280;22748;8.426;99.512;2023-02-04T18:51:35;100589.88;;;29.73;59.26
36798;BME280;22748;8.426;99.512;2023-02-04T18:54:27;100582.41;;;29.68;59.24
36798;BME280;22748;8.426;99.512;2023-02-04T19:00:54;100581.41;;;29.63;59.47
36798;BME280;22748;8.426;99.512;2023-02-04T19:03:26;100572.31;;;29.64;59.64
36798;BME280;22748;8.426;99.512;2023-02-04T19:09:43;100564.44;;;29.62;59.41
36798;BME280;22748;8.426;99.512;2023-02-04T19:12:35;100564.44;;;29.62;59.44
36798;BME280;22748;8.426;99.512;2023-02-04T19:15:27;100564.69;;;29.54;59.58
36798;BME280;22748;8.426;99.512;2023-02-04T19:18:16;100557.66;;;29.53;59.73
36798;BME280;22748;8.426;99.512;2023-02-04T19:21:25;100554.13;;;29.52;59.61
36798;BME280;22748;8.426;99.512;2023-02-04T19:24:21;100551.22;;;29.54;59.65
36798;BME280;22748;8.426;99.512;2023-02-04T19:26:54;100545.22;;;29.52;60.03
36798;BME280;22748;8.426;99.512;2023-02-04T19:29:39;100539.25;;;29.50;60.11
36798;BME280;22748;8.426;99.512;2023-02-04T19:32:40;100530.34;;;29.49;59.70
36798;BME280;22748;8.426;99.512;2023-02-04T19:35:39;100530.56;;;29.48;59.80
36798;BME280;22748;8.426;99.512;2023-02-04T19:38:41;100526.22;;;29.47;59.89
36798;BME280;22748;8.426;99.512;2023-02-04T19:41:25;100522.13;;;29.44;59.76
36798;BME280;22748;8.426;99.512;2023-02-04T19:44:35;100518.56;;;29.44;60.28
36798;BME280;22748;8.426;99.512;2023-02-04T19:47:38;100516.94;;;29.43;59.74
36798;BME280;22748;8.426;99.512;2023-02-04T19:50:33;100518.19;;;29.40;60.04
36798;BME280;22748;8.426;99.512;2023-02-04T19:53:28;100513.63;;;29.41;60.07
36798;BME280;22748;8.426;99.512;2023-02-04T19:56:30;100513.22;;;29.37;59.74
36798;BME280;22748;8.426;99.512;2023-02-04T19:59:26;100504.78;;;29.33;60.18
36798;BME280;22748;8.426;99.512;2023-02-04T20:02:30;100497.94;;;29.31;59.84
36798;BME280;22748;8.426;99.512;2023-02-04T20:05:14;100496.09;;;29.31;59.90
36798;BME280;22748;8.426;99.512;2023-02-04T20:07:53;100489.66;;;29.32;59.71
36798;BME280;22748;8.426;99.512;2023-02-04T20:10:48;100495.06;;;29.32;59.69
36798;BME280;22748;8.426;99.512;2023-02-04T20:13:23;100478.91;;;29.32;59.54
36798;BME280;22748;8.426;99.512;2023-02-04T20:15:56;100479.97;;;29.31;59.93
36798;BME280;22748;8.426;99.512;2023-02-04T20:18:27;100487.41;;;29.29;59.64
36798;BME280;22748;8.426;99.512;2023-02-04T20:20:57;100482.91;;;29.23;59.59
36798;BME280;22748;8.426;99.512;2023-02-04T20:23:31;100479.59;;;29.21;59.53
36798;BME280;22748;8.426;99.512;2023-02-04T20:26:06;100475.47;;;29.19;59.96
36798;BME280;22748;8.426;99.512;2023-02-04T20:28:38;100470.91;;;29.19;59.55
36798;BME280;22748;8.426;99.512;2023-02-04T20:31:24;100474.88;;;29.17;59.82
36798;BME280;22748;8.426;99.512;2023-02-04T20:34:08;100473.00;;;29.17;60.04
36798;BME280;22748;8.426;99.512;2023-02-04T20:36:45;100463.69;;;29.13;59.91
36798;BME280;22748;8.426;99.512;2023-02-04T20:39:36;100462.06;;;29.12;59.60
36798;BME280;22748;8.426;99.512;2023-02-04T20:45:22;100459.59;;;29.10;59.74
36798;BME280;22748;8.426;99.512;2023-02-04T20:47:58;100462.28;;;29.10;59.50
36798;BME280;22748;8.426;99.512;2023-02-04T20:50:38;100468.72;;;29.09;59.59
36798;BME280;22748;8.426;99.512;2023-02-04T20:53:22;100458.78;;;29.10;59.99
36798;BME280;22748;8.426;99.512;2023-02-04T20:55:55;100458.13;;;29.08;59.70
36798;BME280;22748;8.426;99.512;2023-02-04T20:58:35;100457.50;;;29.06;59.42
36798;BME280;22748;8.426;99.512;2023-02-04T21:01:21;100464.97;;;29.04;59.92
36798;BME280;22748;8.426;99.512;2023-02-04T21:03:56;100464.16;;;29.03;59.65
36798;BME280;22748;8.426;99.512;2023-02-04T21:06:28;100466.59;;;29.05;59.56
36798;BME280;22748;8.426;99.512;2023-02-04T21:08:59;100459.59;;;29.04;59.77
36798;BME280;22748;8.426;99.512;2023-02-04T21:11:30;100459.59;;;29.04;59.56
36798;BME280;22748;8.426;99.512;2023-02-04T21:13:59;100457.94;;;29.03;59.59
36798;BME280;22748;8.426;99.512;2023-02-04T21:16:32;100450.91;;;29.02;59.78
36798;BME280;22748;8.426;99.512;2023-02-04T21:19:01;100445.53;;;29.02;59.43
36798;BME280;22748;8.426;99.512;2023-02-04T21:21:35;100450.91;;;29.02;59.78
36798;BME280;22748;8.426;99.512;2023-02-04T21:24:08;100452.78;;;29.01;59.34
36798;BME280;22748;8.426;99.512;2023-02-04T21:26:38;100455.06;;;28.98;59.53
36798;BME280;22748;8.426;99.512;2023-02-04T21:29:09;100449.69;;;28.98;59.72
36798;BME280;22748;8.426;99.512;2023-02-04T21:31:44;100455.06;;;28.98;59.76
36798;BME280;22748;8.426;99.512;2023-02-04T21:34:15;100449.69;;;28.98;59.50
36798;BME280;22748;8.426;99.512;2023-02-04T21:36:45;100447.19;;;28.96;59.91
36798;BME280;22748;8.426;99.512;2023-02-04T21:39:18;100453.44;;;28.97;59.45
36798;BME280;22748;8.426;99.512;2023-02-04T21:41:49;100456.13;;;28.97;59.84
36798;BME280;22748;8.426;99.512;2023-02-04T21:44:39;100459.22;;;28.93;59.50
36798;BME280;22748;8.426;99.512;2023-02-04T21:47:11;100462.94;;;28.92;59.89
36798;BME280;22748;8.426;99.512;2023-02-04T21:49:43;100464.41;;;28.88;59.54
36798;BME280;22748;8.426;99.512;2023-02-04T21:52:13;100475.00;;;28.83;59.84
36798;BME280;22748;8.426;99.512;2023-02-04T21:54:44;100461.97;;;28.80;59.84
36798;BME280;22748;8.426;99.512;2023-02-04T21:57:18;100464.03;;;28.78;59.51
36798;BME280;22748;8.426;99.512;2023-02-04T21:59:55;100468.38;;;28.79;59.78
36798;BME280;22748;8.426;99.512;2023-02-04T22:02:32;100477.25;;;28.80;59.50
36798;BME280;22748;8.426;99.512;2023-02-04T22:05:03;100474.78;;;28.78;59.96
36798;BME280;22748;8.426;99.512;2023-02-04T22:07:35;100481.22;;;28.77;59.85
36798;BME280;22748;8.426;99.512;2023-02-04T22:10:08;100486.59;;;28.77;59.59
36798;BME280;22748;8.426;99.512;2023-02-04T22:12:48;100483.28;;;28.75;59.90
36798;BME280;22748;8.426;99.512;2023-02-04T22:15:18;100490.72;;;28.73;59.59
36798;BME280;22748;8.426;99.512;2023-02-04T22:17:57;100491.53;;;28.74;59.53
36798;BME280;22748;8.426;99.512;2023-02-04T22:20:27;100496.09;;;28.73;59.52
36798;BME280;22748;8.426;99.512;2023-02-04T22:22:57;100503.53;;;28.71;59.96
36798;BME280;22748;8.426;99.512;2023-02-04T22:25:26;100505.63;;;28.69;59.68
36798;BME280;22748;8.426;99.512;2023-02-04T22:28:19;100498.00;;;28.66;59.92
36798;BME280;22748;8.426;99.512;2023-02-04T22:31:11;100499.00;;;28.65;60.12
36798;BME280;22748;8.426;99.512;2023-02-04T22:33:43;100499.63;;;28.67;60.10
36798;BME280;22748;8.426;99.512;2023-02-04T22:36:14;100495.31;;;28.66;60.20
36798;BME280;22748;8.426;99.512;2023-02-04T22:38:43;100496.13;;;28.60;59.63
36798;BME280;22748;8.426;99.512;2023-02-04T22:41:13;100501.91;;;28.57;60.25
36798;BME280;22748;8.426;99.512;2023-02-04T22:43:42;100506.66;;;28.55;59.88
36798;BME280;22748;8.426;99.512;2023-02-04T22:46:11;100499.66;;;28.54;60.23
36798;BME280;22748;8.426;99.512;2023-02-04T22:48:49;100498.22;;;28.44;59.71
36798;BME280;22748;8.426;99.512;2023-02-04T22:51:27;100497.78;;;28.41;60.31
36798;BME280;22748;8.426;99.512;2023-02-04T22:53:58;100498.59;;;28.41;60.64
36798;BME280;22748;8.426;99.512;2023-02-04T22:56:29;100507.91;;;28.45;60.55
36798;BME280;22748;8.426;99.512;2023-02-04T22:59:01;100523.41;;;28.43;60.42
36798;BME280;22748;8.426;99.512;2023-02-04T23:01:34;100518.47;;;28.40;60.43
36798;BME280;22748;8.426;99.512;2023-02-04T23:04:08;100524.03;;;28.32;60.32
36798;BME280;22748;8.426;99.512;2023-02-04T23:06:37;100525.09;;;28.31;60.29
36798;BME280;22748;8.426;99.512;2023-02-04T23:09:07;100524.66;;;28.34;60.83
36798;BME280;22748;8.426;99.512;2023-02-04T23:11:44;100524.22;;;28.37;60.90
36798;BME280;22748;8.426;99.512;2023-02-04T23:14:46;100532.91;;;28.39;60.44
36798;BME280;22748;8.426;99.512;2023-02-04T23:17:30;100532.91;;;28.39;60.39
36798;BME280;22748;8.426;99.512;2023-02-04T23:20:14;100544.69;;;28.38;60.74
36798;BME280;22748;8.426;99.512;2023-02-04T23:22:50;100544.91;;;28.37;60.21
36798;BME280;22748;8.426;99.512;2023-02-04T23:25:22;100558.13;;;28.38;60.56
36798;BME280;22748;8.426;99.512;2023-02-04T23:27:53;100553.56;;;28.39;60.47
36798;BME280;22748;8.426;99.512;2023-02-04T23:30:23;100567.00;;;28.39;60.38
36798;BME280;22748;8.426;99.512;2023-02-04T23:32:52;100577.94;;;28.37;60.56
36798;BME280;22748;8.426;99.512;2023-02-04T23:35:25;100568.44;;;28.35;60.67
36798;BME280;22748;8.426;99.512;2023-02-04T23:37:57;100574.63;;;28.35;60.59
36798;BME280;22748;8.426;99.512;2023-02-04T23:40:28;100580.25;;;28.34;60.92
36798;BME280;22748;8.426;99.512;2023-02-04T23:43:00;100586.22;;;28.29;60.58
36798;BME280;22748;8.426;99.512;2023-02-04T23:45:33;100584.75;;;28.20;60.58
